sensor_id;sensor_type;location;lat;lon;timestamp;P1;durP1;ratioP1;P2;durP2;ratioP2
68256;SDS011;55069;51.568;4.656;2024-03-23T00:53:57;24.13;;;5.10;;
68256;SDS011;55069;51.568;4.656;2024-03-23T00:56:23;24.58;;;5.30;;
68256;SDS011;55069;51.568;4.656;2024-03-23T00:58:49;22.90;;;5.38;;
68256;SDS011;55069;51.568;4.656;2024-03-23T01:01:15;23.47;;;4.93;;
68256;SDS011;55069;51.568;4.656;2024-03-23T01:03:40;23.77;;;5.18;;
68256;SDS011;55069;51.568;4.656;2024-03-23T01:06:06;19.03;;;4.87;;
68256;SDS011;55069;51.568;4.656;2024-03-23T01:08:31;16.33;;;4.43;;
68256;SDS011;55069;51.568;4.656;2024-03-23T01:11:00;26.30;;;5.05;;
68256;SDS011;55069;51.568;4.656;2024-03-23T01:13:26;13.60;;;4.43;;
68256;SDS011;55069;51.568;4.656;2024-03-23T01:15:53;21.08;;;4.47;;
68256;SDS011;55069;51.568;4.656;2024-03-23T01:18:20;19.08;;;4.75;;
68256;SDS011;55069;51.568;4.656;2024-03-23T01:20:46;16.48;;;4.60;;
68256;SDS011;55069;51.568;4.656;2024-03-23T01:23:12;14.93;;;4.43;;
68256;SDS011;55069;51.568;4.656;2024-03-23T01:25:38;21.33;;;4.32;;
68256;SDS011;55069;51.568;4.656;2024-03-23T01:28:04;13.57;;;4.72;;
68256;SDS011;55069;51.568;4.656;2024-03-23T01:30:31;16.93;;;5.33;;
68256;SDS011;55069;51.568;4.656;2024-03-23T01:32:57;17.33;;;4.63;;
68256;SDS011;55069;51.568;4.656;2024-03-23T01:35:22;23.50;;;5.70;;
68256;SDS011;55069;51.568;4.656;2024-03-23T01:37:48;18.25;;;4.82;;
68256;SDS011;55069;51.568;4.656;2024-03-23T01:40:13;14.17;;;4.93;;
68256;SDS011;55069;51.568;4.656;2024-03-23T01:42:39;13.37;;;4.57;;
68256;SDS011;55069;51.568;4.656;2024-03-23T01:45:06;14.40;;;5.47;;
68256;SDS011;55069;51.568;4.656;2024-03-23T01:47:34;19.10;;;5.28;;
68256;SDS011;55069;51.568;4.656;2024-03-23T01:50:00;18.10;;;4.90;;
68256;SDS011;55069;51.568;4.656;2024-03-23T01:52:29;14.70;;;5.27;;
68256;SDS011;55069;51.568;4.656;2024-03-23T01:54:55;20.52;;;5.60;;
68256;SDS011;55069;51.568;4.656;2024-03-23T01:57:21;17.63;;;5.37;;
68256;SDS011;55069;51.568;4.656;2024-03-23T01:59:47;18.17;;;4.90;;
68256;SDS011;55069;51.568;4.656;2024-03-23T02:02:18;19.67;;;5.10;;
68256;SDS011;55069;51.568;4.656;2024-03-23T02:04:45;17.10;;;5.30;;
68256;SDS011;55069;51.568;4.656;2024-03-23T02:07:10;23.40;;;5.13;;
68256;SDS011;55069;51.568;4.656;2024-03-23T02:09:36;20.30;;;5.50;;
68256;SDS011;55069;51.568;4.656;2024-03-23T02:12:01;28.07;;;6.07;;
68256;SDS011;55069;51.568;4.656;2024-03-23T02:14:27;18.00;;;5.22;;
68256;SDS011;55069;51.568;4.656;2024-03-23T02:16:53;14.87;;;4.70;;
68256;SDS011;55069;51.568;4.656;2024-03-23T02:19:18;19.38;;;5.65;;
68256;SDS011;55069;51.568;4.656;2024-03-23T02:21:44;20.77;;;5.10;;
68256;SDS011;55069;51.568;4.656;2024-03-23T02:24:09;18.23;;;4.97;;
68256;SDS011;55069;51.568;4.656;2024-03-23T02:26:35;22.83;;;5.40;;
68256;SDS011;55069;51.568;4.656;2024-03-23T02:29:00;17.15;;;4.88;;
68256;SDS011;55069;51.568;4.656;2024-03-23T02:31:26;21.88;;;6.10;;
68256;SDS011;55069;51.568;4.656;2024-03-23T02:33:52;18.40;;;5.33;;
68256;SDS011;55069;51.568;4.656;2024-03-23T02:36:17;19.40;;;6.30;;
68256;SDS011;55069;51.568;4.656;2024-03-23T02:38:42;15.80;;;4.80;;
68256;SDS011;55069;51.568;4.656;2024-03-23T02:41:08;15.97;;;5.07;;
68256;SDS011;55069;51.568;4.656;2024-03-23T02:43:36;16.13;;;4.80;;
68256;SDS011;55069;51.568;4.656;2024-03-23T02:46:01;20.27;;;4.13;;
68256;SDS011;55069;51.568;4.656;2024-03-23T02:48:28;18.20;;;4.18;;
68256;SDS011;55069;51.568;4.656;2024-03-23T02:50:53;23.40;;;4.63;;
68256;SDS011;55069;51.568;4.656;2024-03-23T02:53:19;12.32;;;4.13;;
68256;SDS011;55069;51.568;4.656;2024-03-23T02:55:44;18.23;;;4.23;;
68256;SDS011;55069;51.568;4.656;2024-03-23T02:58:10;25.03;;;4.73;;
68256;SDS011;55069;51.568;4.656;2024-03-23T03:00:35;15.90;;;3.63;;
68256;SDS011;55069;51.568;4.656;2024-03-23T03:03:01;15.73;;;3.57;;
68256;SDS011;55069;51.568;4.656;2024-03-23T03:05:28;22.95;;;3.83;;
68256;SDS011;55069;51.568;4.656;2024-03-23T03:07:53;24.73;;;3.53;;
68256;SDS011;55069;51.568;4.656;2024-03-23T03:10:19;20.35;;;3.40;;
68256;SDS011;55069;51.568;4.656;2024-03-23T03:12:44;27.47;;;3.83;;
68256;SDS011;55069;51.568;4.656;2024-03-23T03:15:10;13.17;;;2.67;;
68256;SDS011;55069;51.568;4.656;2024-03-23T03:17:35;18.13;;;3.20;;
68256;SDS011;55069;51.568;4.656;2024-03-23T03:20:01;16.58;;;2.95;;
68256;SDS011;55069;51.568;4.656;2024-03-23T03:22:26;13.50;;;3.27;;
68256;SDS011;55069;51.568;4.656;2024-03-23T03:24:52;13.47;;;3.20;;
68256;SDS011;55069;51.568;4.656;2024-03-23T03:27:17;24.17;;;3.23;;
68256;SDS011;55069;51.568;4.656;2024-03-23T03:29:42;14.67;;;2.80;;
68256;SDS011;55069;51.568;4.656;2024-03-23T03:32:08;19.40;;;3.38;;
68256;SDS011;55069;51.568;4.656;2024-03-23T03:34:33;15.60;;;3.17;;
68256;SDS011;55069;51.568;4.656;2024-03-23T03:36:59;13.00;;;2.83;;
68256;SDS011;55069;51.568;4.656;2024-03-23T03:39:25;17.58;;;2.90;;
68256;SDS011;55069;51.568;4.656;2024-03-23T03:41:50;17.63;;;3.47;;
68256;SDS011;55069;51.568;4.656;2024-03-23T03:44:16;12.50;;;2.97;;
68256;SDS011;55069;51.568;4.656;2024-03-23T03:46:42;17.10;;;3.35;;
68256;SDS011;55069;51.568;4.656;2024-03-23T03:49:07;10.17;;;2.67;;
68256;SDS011;55069;51.568;4.656;2024-03-23T03:51:33;14.43;;;2.88;;
68256;SDS011;55069;51.568;4.656;2024-03-23T03:53:59;17.13;;;2.93;;
68256;SDS011;55069;51.568;4.656;2024-03-23T03:56:24;13.98;;;2.63;;
68256;SDS011;55069;51.568;4.656;2024-03-23T03:58:50;15.67;;;3.20;;
68256;SDS011;55069;51.568;4.656;2024-03-23T04:01:15;19.40;;;2.83;;
68256;SDS011;55069;51.568;4.656;2024-03-23T04:03:41;18.77;;;3.40;;
68256;SDS011;55069;51.568;4.656;2024-03-23T04:06:09;18.95;;;3.55;;
68256;SDS011;55069;51.568;4.656;2024-03-23T04:08:34;9.52;;;2.47;;
68256;SDS011;55069;51.568;4.656;2024-03-23T04:11:00;15.27;;;2.90;;
68256;SDS011;55069;51.568;4.656;2024-03-23T04:13:25;21.40;;;2.87;;
68256;SDS011;55069;51.568;4.656;2024-03-23T04:15:54;14.27;;;2.67;;
68256;SDS011;55069;51.568;4.656;2024-03-23T04:18:20;14.90;;;2.88;;
68256;SDS011;55069;51.568;4.656;2024-03-23T04:20:46;15.85;;;2.40;;
68256;SDS011;55069;51.568;4.656;2024-03-23T04:23:13;17.05;;;2.97;;
68256;SDS011;55069;51.568;4.656;2024-03-23T04:25:39;13.07;;;2.40;;
68256;SDS011;55069;51.568;4.656;2024-03-23T04:28:04;21.67;;;2.90;;
68256;SDS011;55069;51.568;4.656;2024-03-23T04:30:30;23.57;;;3.17;;
68256;SDS011;55069;51.568;4.656;2024-03-23T04:32:57;15.45;;;2.90;;
68256;SDS011;55069;51.568;4.656;2024-03-23T04:35:23;20.70;;;2.85;;
68256;SDS011;55069;51.568;4.656;2024-03-23T04:37:50;17.45;;;2.90;;
68256;SDS011;55069;51.568;4.656;2024-03-23T04:40:17;24.30;;;3.13;;
68256;SDS011;55069;51.568;4.656;2024-03-23T04:42:43;17.27;;;2.53;;
68256;SDS011;55069;51.568;4.656;2024-03-23T04:45:09;25.25;;;2.63;;
68256;SDS011;55069;51.568;4.656;2024-03-23T04:47:36;21.13;;;2.63;;
68256;SDS011;55069;51.568;4.656;2024-03-23T04:50:02;22.45;;;3.35;;
68256;SDS011;55069;51.568;4.656;2024-03-23T04:52:29;18.45;;;3.50;;
68256;SDS011;55069;51.568;4.656;2024-03-23T04:54:54;20.48;;;2.85;;
68256;SDS011;55069;51.568;4.656;2024-03-23T04:57:20;15.70;;;2.40;;
68256;SDS011;55069;51.568;4.656;2024-03-23T04:59:46;14.63;;;3.13;;
68256;SDS011;55069;51.568;4.656;2024-03-23T05:02:12;14.15;;;2.78;;
68256;SDS011;55069;51.568;4.656;2024-03-23T05:04:38;18.40;;;3.13;;
68256;SDS011;55069;51.568;4.656;2024-03-23T05:07:05;16.10;;;2.83;;
68256;SDS011;55069;51.568;4.656;2024-03-23T05:09:31;15.90;;;3.00;;
68256;SDS011;55069;51.568;4.656;2024-03-23T05:11:58;18.80;;;2.97;;
68256;SDS011;55069;51.568;4.656;2024-03-23T05:14:25;18.92;;;2.92;;
68256;SDS011;55069;51.568;4.656;2024-03-23T05:16:51;17.67;;;2.97;;
68256;SDS011;55069;51.568;4.656;2024-03-23T05:19:17;14.52;;;2.97;;
68256;SDS011;55069;51.568;4.656;2024-03-23T05:21:42;18.47;;;3.40;;
68256;SDS011;55069;51.568;4.656;2024-03-23T05:24:08;13.67;;;3.00;;
68256;SDS011;55069;51.568;4.656;2024-03-23T05:26:34;23.07;;;3.07;;
68256;SDS011;55069;51.568;4.656;2024-03-23T05:29:00;21.92;;;2.53;;
68256;SDS011;55069;51.568;4.656;2024-03-23T05:31:27;10.15;;;2.47;;
68256;SDS011;55069;51.568;4.656;2024-03-23T05:33:53;17.10;;;2.72;;
68256;SDS011;55069;51.568;4.656;2024-03-23T05:36:19;22.38;;;3.20;;
68256;SDS011;55069;51.568;4.656;2024-03-23T05:38:45;20.30;;;3.55;;
68256;SDS011;55069;51.568;4.656;2024-03-23T05:41:11;23.97;;;3.63;;
68256;SDS011;55069;51.568;4.656;2024-03-23T05:43:36;26.70;;;3.30;;
68256;SDS011;55069;51.568;4.656;2024-03-23T05:46:02;27.27;;;3.20;;
68256;SDS011;55069;51.568;4.656;2024-03-23T05:48:28;21.93;;;3.60;;
68256;SDS011;55069;51.568;4.656;2024-03-23T05:50:55;14.27;;;3.10;;
68256;SDS011;55069;51.568;4.656;2024-03-23T05:53:21;18.58;;;2.63;;
68256;SDS011;55069;51.568;4.656;2024-03-23T05:55:46;14.60;;;2.17;;
68256;SDS011;55069;51.568;4.656;2024-03-23T05:58:15;22.98;;;3.45;;
68256;SDS011;55069;51.568;4.656;2024-03-23T06:00:42;13.97;;;3.10;;
68256;SDS011;55069;51.568;4.656;2024-03-23T06:03:08;16.67;;;3.70;;
68256;SDS011;55069;51.568;4.656;2024-03-23T06:05:34;9.77;;;3.13;;
68256;SDS011;55069;51.568;4.656;2024-03-23T06:07:59;9.53;;;2.73;;
68256;SDS011;55069;51.568;4.656;2024-03-23T06:10:25;18.07;;;2.73;;
68256;SDS011;55069;51.568;4.656;2024-03-23T06:12:50;17.73;;;3.10;;
68256;SDS011;55069;51.568;4.656;2024-03-23T06:15:17;20.30;;;3.17;;
68256;SDS011;55069;51.568;4.656;2024-03-23T06:17:44;16.67;;;3.05;;
68256;SDS011;55069;51.568;4.656;2024-03-23T06:20:10;12.50;;;2.83;;
68256;SDS011;55069;51.568;4.656;2024-03-23T06:22:35;23.77;;;2.40;;
68256;SDS011;55069;51.568;4.656;2024-03-23T06:25:01;19.57;;;3.80;;
68256;SDS011;55069;51.568;4.656;2024-03-23T06:27:27;10.38;;;2.25;;
68256;SDS011;55069;51.568;4.656;2024-03-23T06:29:53;13.77;;;2.30;;
68256;SDS011;55069;51.568;4.656;2024-03-23T06:32:18;16.15;;;2.63;;
68256;SDS011;55069;51.568;4.656;2024-03-23T06:34:44;14.43;;;2.83;;
68256;SDS011;55069;51.568;4.656;2024-03-23T06:37:10;13.65;;;2.78;;
68256;SDS011;55069;51.568;4.656;2024-03-23T06:39:38;17.02;;;2.97;;
68256;SDS011;55069;51.568;4.656;2024-03-23T06:42:04;20.00;;;2.67;;
68256;SDS011;55069;51.568;4.656;2024-03-23T06:44:30;24.67;;;3.67;;
68256;SDS011;55069;51.568;4.656;2024-03-23T06:46:55;21.73;;;3.40;;
68256;SDS011;55069;51.568;4.656;2024-03-23T06:49:22;26.17;;;3.25;;
68256;SDS011;55069;51.568;4.656;2024-03-23T06:51:48;18.00;;;2.57;;
68256;SDS011;55069;51.568;4.656;2024-03-23T06:54:14;23.38;;;3.20;;
68256;SDS011;55069;51.568;4.656;2024-03-23T06:56:40;12.57;;;2.73;;
68256;SDS011;55069;51.568;4.656;2024-03-23T06:59:06;26.08;;;4.50;;
68256;SDS011;55069;51.568;4.656;2024-03-23T07:01:31;17.63;;;3.40;;
68256;SDS011;55069;51.568;4.656;2024-03-23T07:03:57;16.13;;;2.90;;
68256;SDS011;55069;51.568;4.656;2024-03-23T07:06:23;11.90;;;2.47;;
68256;SDS011;55069;51.568;4.656;2024-03-23T07:08:48;13.88;;;2.58;;
68256;SDS011;55069;51.568;4.656;2024-03-23T07:11:22;11.37;;;2.67;;
68256;SDS011;55069;51.568;4.656;2024-03-23T07:13:51;14.43;;;2.35;;
68256;SDS011;55069;51.568;4.656;2024-03-23T07:16:19;15.23;;;1.90;;
68256;SDS011;55069;51.568;4.656;2024-03-23T07:18:45;13.52;;;2.00;;
68256;SDS011;55069;51.568;4.656;2024-03-23T07:21:10;17.30;;;1.73;;
68256;SDS011;55069;51.568;4.656;2024-03-23T07:23:36;14.13;;;1.77;;
68256;SDS011;55069;51.568;4.656;2024-03-23T07:26:04;14.13;;;1.70;;
68256;SDS011;55069;51.568;4.656;2024-03-23T07:28:31;11.65;;;2.33;;
68256;SDS011;55069;51.568;4.656;2024-03-23T07:31:04;13.68;;;2.40;;
68256;SDS011;55069;51.568;4.656;2024-03-23T07:33:31;25.25;;;2.50;;
68256;SDS011;55069;51.568;4.656;2024-03-23T07:35:57;17.97;;;2.10;;
68256;SDS011;55069;51.568;4.656;2024-03-23T07:38:25;15.15;;;2.20;;
68256;SDS011;55069;51.568;4.656;2024-03-23T07:40:52;21.80;;;3.10;;
68256;SDS011;55069;51.568;4.656;2024-03-23T07:43:21;12.25;;;2.00;;
68256;SDS011;55069;51.568;4.656;2024-03-23T07:45:53;12.45;;;2.10;;
68256;SDS011;55069;51.568;4.656;2024-03-23T07:48:18;12.83;;;2.03;;
68256;SDS011;55069;51.568;4.656;2024-03-23T07:50:55;19.25;;;1.65;;
68256;SDS011;55069;51.568;4.656;2024-03-23T07:53:22;15.85;;;1.60;;
68256;SDS011;55069;51.568;4.656;2024-03-23T07:55:54;10.20;;;2.87;;
68256;SDS011;55069;51.568;4.656;2024-03-23T07:58:23;8.75;;;2.00;;
68256;SDS011;55069;51.568;4.656;2024-03-23T08:00:49;16.70;;;2.63;;
68256;SDS011;55069;51.568;4.656;2024-03-23T08:03:15;13.53;;;2.37;;
68256;SDS011;55069;51.568;4.656;2024-03-23T08:05:40;13.55;;;1.98;;
68256;SDS011;55069;51.568;4.656;2024-03-23T08:08:06;11.27;;;2.50;;
68256;SDS011;55069;51.568;4.656;2024-03-23T08:10:32;11.73;;;1.50;;
68256;SDS011;55069;51.568;4.656;2024-03-23T08:12:57;16.30;;;2.33;;
68256;SDS011;55069;51.568;4.656;2024-03-23T08:15:22;9.35;;;1.42;;
68256;SDS011;55069;51.568;4.656;2024-03-23T08:17:49;11.20;;;2.10;;
68256;SDS011;55069;51.568;4.656;2024-03-23T08:20:14;14.30;;;1.90;;
68256;SDS011;55069;51.568;4.656;2024-03-23T08:22:40;8.43;;;1.67;;
68256;SDS011;55069;51.568;4.656;2024-03-23T08:25:05;11.07;;;1.80;;
68256;SDS011;55069;51.568;4.656;2024-03-23T08:27:31;13.43;;;1.98;;
68256;SDS011;55069;51.568;4.656;2024-03-23T08:29:58;13.75;;;1.52;;
68256;SDS011;55069;51.568;4.656;2024-03-23T08:32:23;10.63;;;1.90;;
68256;SDS011;55069;51.568;4.656;2024-03-23T08:34:48;15.37;;;1.90;;
68256;SDS011;55069;51.568;4.656;2024-03-23T08:37:14;11.10;;;1.97;;
68256;SDS011;55069;51.568;4.656;2024-03-23T08:39:39;11.40;;;2.00;;
68256;SDS011;55069;51.568;4.656;2024-03-23T08:42:05;15.52;;;2.30;;
68256;SDS011;55069;51.568;4.656;2024-03-23T08:44:30;9.53;;;1.50;;
68256;SDS011;55069;51.568;4.656;2024-03-23T08:46:56;10.87;;;1.67;;
68256;SDS011;55069;51.568;4.656;2024-03-23T08:49:21;14.10;;;2.17;;
68256;SDS011;55069;51.568;4.656;2024-03-23T08:51:47;13.80;;;2.97;;
68256;SDS011;55069;51.568;4.656;2024-03-23T08:54:12;9.07;;;1.83;;
68256;SDS011;55069;51.568;4.656;2024-03-23T08:56:38;14.30;;;3.10;;
68256;SDS011;55069;51.568;4.656;2024-03-23T08:59:03;6.87;;;1.90;;
68256;SDS011;55069;51.568;4.656;2024-03-23T09:01:28;10.23;;;1.60;;
68256;SDS011;55069;51.568;4.656;2024-03-23T09:03:54;9.37;;;1.80;;
68256;SDS011;55069;51.568;4.656;2024-03-23T09:06:20;10.25;;;1.38;;
68256;SDS011;55069;51.568;4.656;2024-03-23T09:08:46;7.17;;;1.40;;
68256;SDS011;55069;51.568;4.656;2024-03-23T09:11:12;12.33;;;1.40;;
68256;SDS011;55069;51.568;4.656;2024-03-23T09:13:38;12.95;;;1.77;;
68256;SDS011;55069;51.568;4.656;2024-03-23T09:16:04;8.93;;;1.55;;
68256;SDS011;55069;51.568;4.656;2024-03-23T09:18:31;7.30;;;1.03;;
68256;SDS011;55069;51.568;4.656;2024-03-23T09:20:58;8.15;;;1.30;;
68256;SDS011;55069;51.568;4.656;2024-03-23T09:23:23;12.23;;;1.30;;
68256;SDS011;55069;51.568;4.656;2024-03-23T09:25:49;10.32;;;1.15;;
68256;SDS011;55069;51.568;4.656;2024-03-23T09:28:14;8.80;;;2.03;;
68256;SDS011;55069;51.568;4.656;2024-03-23T09:30:39;9.17;;;1.50;;
68256;SDS011;55069;51.568;4.656;2024-03-23T09:33:08;8.73;;;1.52;;
68256;SDS011;55069;51.568;4.656;2024-03-23T09:35:40;12.05;;;1.63;;
68256;SDS011;55069;51.568;4.656;2024-03-23T09:38:07;7.72;;;1.70;;
68256;SDS011;55069;51.568;4.656;2024-03-23T09:40:34;13.27;;;1.13;;
68256;SDS011;55069;51.568;4.656;2024-03-23T09:43:00;12.98;;;1.75;;
68256;SDS011;55069;51.568;4.656;2024-03-23T09:45:29;8.45;;;1.30;;
68256;SDS011;55069;51.568;4.656;2024-03-23T09:47:55;4.80;;;0.90;;
68256;SDS011;55069;51.568;4.656;2024-03-23T09:50:21;9.73;;;1.73;;
68256;SDS011;55069;51.568;4.656;2024-03-23T09:52:47;8.05;;;1.20;;
68256;SDS011;55069;51.568;4.656;2024-03-23T09:55:12;14.90;;;1.40;;
68256;SDS011;55069;51.568;4.656;2024-03-23T09:57:39;10.02;;;1.52;;
68256;SDS011;55069;51.568;4.656;2024-03-23T10:00:05;10.27;;;1.63;;
68256;SDS011;55069;51.568;4.656;2024-03-23T10:02:32;9.98;;;1.65;;
68256;SDS011;55069;51.568;4.656;2024-03-23T10:04:58;9.53;;;1.43;;
68256;SDS011;55069;51.568;4.656;2024-03-23T10:07:23;10.57;;;1.10;;
68256;SDS011;55069;51.568;4.656;2024-03-23T10:09:50;6.77;;;1.07;;
68256;SDS011;55069;51.568;4.656;2024-03-23T10:12:17;12.60;;;1.40;;
68256;SDS011;55069;51.568;4.656;2024-03-23T10:14:43;9.20;;;1.15;;
68256;SDS011;55069;51.568;4.656;2024-03-23T10:17:21;15.23;;;2.30;;
68256;SDS011;55069;51.568;4.656;2024-03-23T10:19:51;11.93;;;1.13;;
68256;SDS011;55069;51.568;4.656;2024-03-23T10:22:21;12.55;;;1.30;;
68256;SDS011;55069;51.568;4.656;2024-03-23T10:24:47;10.93;;;1.50;;
68256;SDS011;55069;51.568;4.656;2024-03-23T10:27:20;6.83;;;1.10;;
68256;SDS011;55069;51.568;4.656;2024-03-23T10:29:47;5.25;;;1.13;;
68256;SDS011;55069;51.568;4.656;2024-03-23T10:32:17;7.07;;;1.30;;
68256;SDS011;55069;51.568;4.656;2024-03-23T10:34:43;8.88;;;1.45;;
68256;SDS011;55069;51.568;4.656;2024-03-23T10:37:09;11.13;;;1.40;;
68256;SDS011;55069;51.568;4.656;2024-03-23T10:39:39;11.53;;;1.27;;
68256;SDS011;55069;51.568;4.656;2024-03-23T10:42:08;8.25;;;0.98;;
68256;SDS011;55069;51.568;4.656;2024-03-23T10:44:38;10.25;;;1.13;;
68256;SDS011;55069;51.568;4.656;2024-03-23T10:47:04;7.43;;;1.00;;
68256;SDS011;55069;51.568;4.656;2024-03-23T10:49:31;8.82;;;1.02;;
68256;SDS011;55069;51.568;4.656;2024-03-23T10:52:02;6.20;;;0.60;;
68256;SDS011;55069;51.568;4.656;2024-03-23T10:54:29;6.18;;;0.80;;
68256;SDS011;55069;51.568;4.656;2024-03-23T10:59:42;4.40;;;0.70;;
68256;SDS011;55069;51.568;4.656;2024-03-23T11:02:18;7.38;;;0.93;;
68256;SDS011;55069;51.568;4.656;2024-03-23T11:04:44;3.70;;;0.60;;
68256;SDS011;55069;51.568;4.656;2024-03-23T11:07:44;7.03;;;1.02;;
68256;SDS011;55069;51.568;4.656;2024-03-23T11:10:04;12.90;;;1.23;;
68256;SDS011;55069;51.568;4.656;2024-03-23T11:12:54;7.80;;;1.13;;
68256;SDS011;55069;51.568;4.656;2024-03-23T11:15:20;7.07;;;0.77;;
68256;SDS011;55069;51.568;4.656;2024-03-23T11:18:06;7.20;;;1.37;;
68256;SDS011;55069;51.568;4.656;2024-03-23T11:20:37;7.40;;;0.88;;
68256;SDS011;55069;51.568;4.656;2024-03-23T11:23:02;8.40;;;1.60;;
68256;SDS011;55069;51.568;4.656;2024-03-23T11:25:28;5.77;;;1.30;;
68256;SDS011;55069;51.568;4.656;2024-03-23T11:27:55;6.95;;;0.90;;
68256;SDS011;55069;51.568;4.656;2024-03-23T11:30:25;12.77;;;1.10;;
68256;SDS011;55069;51.568;4.656;2024-03-23T11:32:52;6.82;;;1.10;;
68256;SDS011;55069;51.568;4.656;2024-03-23T11:38:10;7.70;;;1.20;;
68256;SDS011;55069;51.568;4.656;2024-03-23T11:40:37;9.68;;;1.20;;
68256;SDS011;55069;51.568;4.656;2024-03-23T11:43:07;11.97;;;1.17;;
68256;SDS011;55069;51.568;4.656;2024-03-23T11:45:39;9.48;;;1.25;;
68256;SDS011;55069;51.568;4.656;2024-03-23T11:48:19;8.57;;;0.82;;
68256;SDS011;55069;51.568;4.656;2024-03-23T11:50:47;9.18;;;1.23;;
68256;SDS011;55069;51.568;4.656;2024-03-23T11:53:15;10.98;;;1.35;;
68256;SDS011;55069;51.568;4.656;2024-03-23T11:55:50;10.10;;;1.37;;
68256;SDS011;55069;51.568;4.656;2024-03-23T11:58:19;20.73;;;2.10;;
68256;SDS011;55069;51.568;4.656;2024-03-23T12:00:50;11.52;;;1.00;;
68256;SDS011;55069;51.568;4.656;2024-03-23T12:03:16;8.25;;;1.15;;
68256;SDS011;55069;51.568;4.656;2024-03-23T12:05:47;9.88;;;1.92;;
68256;SDS011;55069;51.568;4.656;2024-03-23T12:08:34;10.43;;;1.40;;
68256;SDS011;55069;51.568;4.656;2024-03-23T12:13:40;12.73;;;1.83;;
68256;SDS011;55069;51.568;4.656;2024-03-23T12:16:14;11.32;;;1.38;;
68256;SDS011;55069;51.568;4.656;2024-03-23T12:18:40;15.18;;;1.80;;
68256;SDS011;55069;51.568;4.656;2024-03-23T12:21:07;11.37;;;2.10;;
68256;SDS011;55069;51.568;4.656;2024-03-23T12:23:33;8.40;;;1.58;;
68256;SDS011;55069;51.568;4.656;2024-03-23T12:25:59;11.15;;;1.50;;
68256;SDS011;55069;51.568;4.656;2024-03-23T12:28:25;9.20;;;1.20;;
68256;SDS011;55069;51.568;4.656;2024-03-23T12:30:51;12.77;;;1.17;;
68256;SDS011;55069;51.568;4.656;2024-03-23T12:33:20;5.22;;;1.00;;
68256;SDS011;55069;51.568;4.656;2024-03-23T12:35:46;6.28;;;0.65;;
68256;SDS011;55069;51.568;4.656;2024-03-23T12:38:15;6.63;;;0.97;;
68256;SDS011;55069;51.568;4.656;2024-03-23T12:40:40;3.08;;;0.50;;
68256;SDS011;55069;51.568;4.656;2024-03-23T12:43:06;5.77;;;0.80;;
68256;SDS011;55069;51.568;4.656;2024-03-23T12:45:32;6.00;;;0.60;;
68256;SDS011;55069;51.568;4.656;2024-03-23T12:47:58;10.80;;;1.20;;
68256;SDS011;55069;51.568;4.656;2024-03-23T12:50:23;9.37;;;0.80;;
68256;SDS011;55069;51.568;4.656;2024-03-23T12:52:49;7.35;;;1.00;;
68256;SDS011;55069;51.568;4.656;2024-03-23T12:55:14;8.85;;;1.67;;
68256;SDS011;55069;51.568;4.656;2024-03-23T12:57:40;8.90;;;1.20;;
68256;SDS011;55069;51.568;4.656;2024-03-23T13:00:08;9.00;;;1.35;;
68256;SDS011;55069;51.568;4.656;2024-03-23T13:02:37;10.73;;;1.90;;
68256;SDS011;55069;51.568;4.656;2024-03-23T13:05:04;11.13;;;1.40;;
68256;SDS011;55069;51.568;4.656;2024-03-23T13:07:29;12.50;;;1.50;;
68256;SDS011;55069;51.568;4.656;2024-03-23T13:09:55;9.83;;;1.43;;
68256;SDS011;55069;51.568;4.656;2024-03-23T13:12:22;10.32;;;1.85;;
68256;SDS011;55069;51.568;4.656;2024-03-23T13:14:48;11.45;;;1.13;;
68256;SDS011;55069;51.568;4.656;2024-03-23T13:17:14;7.20;;;1.30;;
68256;SDS011;55069;51.568;4.656;2024-03-23T13:19:40;3.55;;;0.93;;
68256;SDS011;55069;51.568;4.656;2024-03-23T13:22:06;11.77;;;1.27;;
68256;SDS011;55069;51.568;4.656;2024-03-23T13:24:31;6.73;;;0.83;;
68256;SDS011;55069;51.568;4.656;2024-03-23T13:26:57;4.28;;;0.82;;
68256;SDS011;55069;51.568;4.656;2024-03-23T13:29:23;10.90;;;1.00;;
68256;SDS011;55069;51.568;4.656;2024-03-23T13:31:50;6.80;;;1.10;;
68256;SDS011;55069;51.568;4.656;2024-03-23T13:34:16;9.95;;;1.65;;
68256;SDS011;55069;51.568;4.656;2024-03-23T13:36:43;10.27;;;1.85;;
68256;SDS011;55069;51.568;4.656;2024-03-23T13:39:09;20.20;;;1.80;;
68256;SDS011;55069;51.568;4.656;2024-03-23T13:41:41;7.87;;;1.27;;
68256;SDS011;55069;51.568;4.656;2024-03-23T13:44:09;7.07;;;1.13;;
68256;SDS011;55069;51.568;4.656;2024-03-23T13:46:38;11.70;;;1.45;;
68256;SDS011;55069;51.568;4.656;2024-03-23T13:49:05;7.47;;;1.83;;
68256;SDS011;55069;51.568;4.656;2024-03-23T13:51:31;11.10;;;1.50;;
68256;SDS011;55069;51.568;4.656;2024-03-23T13:53:57;9.40;;;1.23;;
68256;SDS011;55069;51.568;4.656;2024-03-23T13:56:25;7.50;;;1.23;;
68256;SDS011;55069;51.568;4.656;2024-03-23T13:58:51;13.10;;;1.95;;
68256;SDS011;55069;51.568;4.656;2024-03-23T14:01:17;7.07;;;1.67;;
68256;SDS011;55069;51.568;4.656;2024-03-23T14:03:42;5.95;;;1.15;;
68256;SDS011;55069;51.568;4.656;2024-03-23T14:06:09;7.00;;;1.13;;
68256;SDS011;55069;51.568;4.656;2024-03-23T14:08:36;11.60;;;1.33;;
68256;SDS011;55069;51.568;4.656;2024-03-23T14:11:04;10.60;;;1.25;;
68256;SDS011;55069;51.568;4.656;2024-03-23T14:13:34;11.52;;;0.75;;
68256;SDS011;55069;51.568;4.656;2024-03-23T14:15:59;7.43;;;0.73;;
68256;SDS011;55069;51.568;4.656;2024-03-23T14:18:25;8.50;;;0.80;;
68256;SDS011;55069;51.568;4.656;2024-03-23T14:20:57;5.43;;;1.02;;
68256;SDS011;55069;51.568;4.656;2024-03-23T14:23:27;6.27;;;0.80;;
68256;SDS011;55069;51.568;4.656;2024-03-23T14:25:54;5.38;;;0.60;;
68256;SDS011;55069;51.568;4.656;2024-03-23T14:28:21;6.45;;;0.80;;
68256;SDS011;55069;51.568;4.656;2024-03-23T14:30:48;3.20;;;0.47;;
68256;SDS011;55069;51.568;4.656;2024-03-23T14:33:17;6.80;;;0.85;;
68256;SDS011;55069;51.568;4.656;2024-03-23T14:35:43;2.60;;;0.53;;
68256;SDS011;55069;51.568;4.656;2024-03-23T14:38:09;2.85;;;0.55;;
68256;SDS011;55069;51.568;4.656;2024-03-23T14:40:34;4.07;;;0.70;;
68256;SDS011;55069;51.568;4.656;2024-03-23T14:43:00;2.97;;;0.43;;
68256;SDS011;55069;51.568;4.656;2024-03-23T14:45:26;4.10;;;0.23;;
68256;SDS011;55069;51.568;4.656;2024-03-23T14:47:51;2.53;;;0.30;;
68256;SDS011;55069;51.568;4.656;2024-03-23T14:50:17;7.57;;;0.40;;
68256;SDS011;55069;51.568;4.656;2024-03-23T14:52:46;4.80;;;0.60;;
68256;SDS011;55069;51.568;4.656;2024-03-23T14:55:11;5.25;;;0.43;;
68256;SDS011;55069;51.568;4.656;2024-03-23T14:57:37;5.07;;;0.40;;
68256;SDS011;55069;51.568;4.656;2024-03-23T15:00:07;4.43;;;0.80;;
68256;SDS011;55069;51.568;4.656;2024-03-23T15:02:35;5.65;;;1.40;;
68256;SDS011;55069;51.568;4.656;2024-03-23T15:05:01;4.60;;;0.77;;
68256;SDS011;55069;51.568;4.656;2024-03-23T15:07:28;4.87;;;0.77;;
68256;SDS011;55069;51.568;4.656;2024-03-23T15:09:54;4.20;;;0.85;;
68256;SDS011;55069;51.568;4.656;2024-03-23T15:12:19;5.17;;;1.10;;
68256;SDS011;55069;51.568;4.656;2024-03-23T15:14:46;4.53;;;0.68;;
68256;SDS011;55069;51.568;4.656;2024-03-23T15:17:12;2.60;;;0.47;;
68256;SDS011;55069;51.568;4.656;2024-03-23T15:19:38;3.67;;;0.40;;
68256;SDS011;55069;51.568;4.656;2024-03-23T15:22:03;2.38;;;0.52;;
68256;SDS011;55069;51.568;4.656;2024-03-23T15:24:29;5.00;;;0.50;;
68256;SDS011;55069;51.568;4.656;2024-03-23T15:26:54;6.00;;;0.90;;
68256;SDS011;55069;51.568;4.656;2024-03-23T15:29:20;1.97;;;0.50;;
68256;SDS011;55069;51.568;4.656;2024-03-23T15:31:47;3.72;;;0.60;;
68256;SDS011;55069;51.568;4.656;2024-03-23T15:34:16;5.32;;;0.60;;
68256;SDS011;55069;51.568;4.656;2024-03-23T15:36:41;2.03;;;0.20;;